Los Alamitos Army Air Field Los Alamitos US
ICAO: KSLI
IATA: SLI
Category: Medium
Scheduled Services: No

Elevation: 32 ft
TransAlt. 18000 ft.

Airport Communications:
SOCAL APP/DEP:124.65
AFLD OPS ADVSY SVC:126.2
GND:126.95
AASF OPS:41.5
PMSV METRO:23.98
ARCOM OPS:139.05
TWR:123.85

KSLI Zoom In..

If you have problems with the map follow the link
https://www.worldairports.se/pages/airport.php?
ICAO=KSLI

Runways:

(A) RW 04L length 5900 ft width 150 ft
---- / hdg 40

(B) RW 04R length 8000 ft width 200 ft
---- / hdg 40

(C) RW 22L length 8000 ft width 200 ft
---- / hdg 220

(D) RW 22R length 5900 ft width 150 ft
---- / hdg 220

Location; KSLI
Day. 18 / Time. 21.58 Zulu
* Altimeter: 30.21
* Temperature: 18° c. 64.4°f.
* Wind from: 210° Speed 07 kn.
Dewpoint: 14° c.
Visibility: 10 Statute Miles.
Clouds: Scattered 3900 ft.
Clouds: Scattered 25000 ft.

KSLI 182158Z 21007KT 10SM SCT039 SCT250 18/14 A3021 RMK AO2A SLP233 T01770136


Wind From 210°
Speed 07 kn.

 
 
jpsmedia.com for Web Design worldairports.se 2019   terms of use